sensor_id;sensor_type;location;lat;lon;timestamp;P1;durP1;ratioP1;P2;durP2;ratioP2
56718;SDS011;42597;40.636;0.278;2023-12-04T00:00:26;11.13;;;3.42;;
56718;SDS011;42597;40.636;0.278;2023-12-04T00:02:52;7.53;;;2.75;;
56718;SDS011;42597;40.636;0.278;2023-12-04T00:05:17;16.88;;;3.70;;
56718;SDS011;42597;40.636;0.278;2023-12-04T00:07:43;10.50;;;3.53;;
56718;SDS011;42597;40.636;0.278;2023-12-04T00:10:09;7.10;;;2.85;;
56718;SDS011;42597;40.636;0.278;2023-12-04T00:12:34;4.30;;;2.35;;
56718;SDS011;42597;40.636;0.278;2023-12-04T00:15:00;8.40;;;2.53;;
56718;SDS011;42597;40.636;0.278;2023-12-04T00:17:26;7.03;;;3.53;;
56718;SDS011;42597;40.636;0.278;2023-12-04T00:19:51;13.73;;;3.95;;
56718;SDS011;42597;40.636;0.278;2023-12-04T00:22:17;5.40;;;2.38;;
56718;SDS011;42597;40.636;0.278;2023-12-04T00:24:42;5.75;;;1.80;;
56718;SDS011;42597;40.636;0.278;2023-12-04T00:27:08;8.40;;;2.75;;
56718;SDS011;42597;40.636;0.278;2023-12-04T00:29:33;4.50;;;2.85;;
56718;SDS011;42597;40.636;0.278;2023-12-04T00:31:59;6.65;;;2.47;;
56718;SDS011;42597;40.636;0.278;2023-12-04T00:34:24;13.52;;;3.25;;
56718;SDS011;42597;40.636;0.278;2023-12-04T00:36:50;7.85;;;3.03;;
56718;SDS011;42597;40.636;0.278;2023-12-04T00:39:16;9.02;;;3.00;;
56718;SDS011;42597;40.636;0.278;2023-12-04T00:41:41;3.38;;;1.92;;
56718;SDS011;42597;40.636;0.278;2023-12-04T00:44:07;3.92;;;2.05;;
56718;SDS011;42597;40.636;0.278;2023-12-04T00:46:33;5.07;;;2.38;;
56718;SDS011;42597;40.636;0.278;2023-12-04T00:48:59;6.57;;;2.67;;
56718;SDS011;42597;40.636;0.278;2023-12-04T00:51:24;4.53;;;2.50;;
56718;SDS011;42597;40.636;0.278;2023-12-04T00:53:51;3.08;;;1.75;;
56718;SDS011;42597;40.636;0.278;2023-12-04T00:56:16;3.15;;;1.52;;
56718;SDS011;42597;40.636;0.278;2023-12-04T00:58:43;4.78;;;2.25;;
56718;SDS011;42597;40.636;0.278;2023-12-04T01:01:09;3.78;;;1.85;;
56718;SDS011;42597;40.636;0.278;2023-12-04T01:03:35;2.58;;;1.50;;
56718;SDS011;42597;40.636;0.278;2023-12-04T01:06:00;5.63;;;2.40;;
56718;SDS011;42597;40.636;0.278;2023-12-04T01:08:26;4.15;;;1.98;;
56718;SDS011;42597;40.636;0.278;2023-12-04T01:10:51;3.10;;;1.65;;
56718;SDS011;42597;40.636;0.278;2023-12-04T01:13:17;2.63;;;1.48;;
56718;SDS011;42597;40.636;0.278;2023-12-04T01:15:43;3.08;;;1.65;;
56718;SDS011;42597;40.636;0.278;2023-12-04T01:18:09;3.78;;;1.92;;
56718;SDS011;42597;40.636;0.278;2023-12-04T01:20:35;2.90;;;1.95;;
56718;SDS011;42597;40.636;0.278;2023-12-04T01:23:01;3.70;;;1.45;;
56718;SDS011;42597;40.636;0.278;2023-12-04T01:25:27;4.82;;;1.90;;
56718;SDS011;42597;40.636;0.278;2023-12-04T01:27:52;4.10;;;1.83;;
56718;SDS011;42597;40.636;0.278;2023-12-04T01:30:18;4.68;;;2.03;;
56718;SDS011;42597;40.636;0.278;2023-12-04T01:32:43;4.63;;;1.98;;
56718;SDS011;42597;40.636;0.278;2023-12-04T01:35:09;3.65;;;1.85;;
56718;SDS011;42597;40.636;0.278;2023-12-04T01:37:36;4.28;;;2.10;;
56718;SDS011;42597;40.636;0.278;2023-12-04T01:40:02;3.45;;;1.73;;
56718;SDS011;42597;40.636;0.278;2023-12-04T01:42:31;3.38;;;1.48;;
56718;SDS011;42597;40.636;0.278;2023-12-04T01:44:57;2.25;;;1.55;;
56718;SDS011;42597;40.636;0.278;2023-12-04T01:47:22;5.15;;;1.70;;
56718;SDS011;42597;40.636;0.278;2023-12-04T01:49:49;4.15;;;1.73;;
56718;SDS011;42597;40.636;0.278;2023-12-04T01:52:15;6.65;;;1.85;;
56718;SDS011;42597;40.636;0.278;2023-12-04T01:54:42;5.60;;;2.15;;
56718;SDS011;42597;40.636;0.278;2023-12-04T01:57:08;4.18;;;1.92;;
56718;SDS011;42597;40.636;0.278;2023-12-04T01:59:35;2.60;;;1.77;;
56718;SDS011;42597;40.636;0.278;2023-12-04T02:02:01;2.60;;;1.50;;
56718;SDS011;42597;40.636;0.278;2023-12-04T02:04:27;3.92;;;1.58;;
56718;SDS011;42597;40.636;0.278;2023-12-04T02:06:53;2.28;;;1.23;;
56718;SDS011;42597;40.636;0.278;2023-12-04T02:09:19;3.88;;;1.77;;
56718;SDS011;42597;40.636;0.278;2023-12-04T02:11:45;2.35;;;1.40;;
56718;SDS011;42597;40.636;0.278;2023-12-04T02:14:10;3.10;;;1.20;;
56718;SDS011;42597;40.636;0.278;2023-12-04T02:16:38;5.25;;;2.58;;
56718;SDS011;42597;40.636;0.278;2023-12-04T02:19:07;3.88;;;1.95;;
56718;SDS011;42597;40.636;0.278;2023-12-04T02:21:34;3.63;;;1.80;;
56718;SDS011;42597;40.636;0.278;2023-12-04T02:23:59;2.60;;;1.10;;
56718;SDS011;42597;40.636;0.278;2023-12-04T02:26:28;2.92;;;1.60;;
56718;SDS011;42597;40.636;0.278;2023-12-04T02:29:00;3.13;;;1.70;;
56718;SDS011;42597;40.636;0.278;2023-12-04T02:31:32;2.22;;;1.30;;
56718;SDS011;42597;40.636;0.278;2023-12-04T02:34:00;3.53;;;1.50;;
56718;SDS011;42597;40.636;0.278;2023-12-04T02:36:28;4.03;;;1.50;;
56718;SDS011;42597;40.636;0.278;2023-12-04T02:38:55;3.33;;;1.50;;
56718;SDS011;42597;40.636;0.278;2023-12-04T02:41:21;3.58;;;1.42;;
56718;SDS011;42597;40.636;0.278;2023-12-04T02:43:47;3.42;;;1.48;;
56718;SDS011;42597;40.636;0.278;2023-12-04T02:46:12;2.47;;;1.60;;
56718;SDS011;42597;40.636;0.278;2023-12-04T02:48:38;4.38;;;1.35;;
56718;SDS011;42597;40.636;0.278;2023-12-04T02:51:04;2.70;;;1.40;;
56718;SDS011;42597;40.636;0.278;2023-12-04T02:53:30;2.67;;;1.45;;
56718;SDS011;42597;40.636;0.278;2023-12-04T02:55:56;4.93;;;1.55;;
56718;SDS011;42597;40.636;0.278;2023-12-04T02:58:21;3.28;;;1.48;;
56718;SDS011;42597;40.636;0.278;2023-12-04T03:00:47;2.53;;;1.20;;
56718;SDS011;42597;40.636;0.278;2023-12-04T03:03:12;2.53;;;1.23;;
56718;SDS011;42597;40.636;0.278;2023-12-04T03:05:38;2.85;;;1.50;;
56718;SDS011;42597;40.636;0.278;2023-12-04T03:08:04;2.78;;;1.50;;
56718;SDS011;42597;40.636;0.278;2023-12-04T03:10:29;3.35;;;1.23;;
56718;SDS011;42597;40.636;0.278;2023-12-04T03:12:55;3.45;;;1.70;;
56718;SDS011;42597;40.636;0.278;2023-12-04T03:15:20;2.58;;;1.40;;
56718;SDS011;42597;40.636;0.278;2023-12-04T03:17:46;2.17;;;1.33;;
56718;SDS011;42597;40.636;0.278;2023-12-04T03:20:12;2.35;;;1.30;;
56718;SDS011;42597;40.636;0.278;2023-12-04T03:22:37;3.75;;;1.20;;
56718;SDS011;42597;40.636;0.278;2023-12-04T03:25:03;2.17;;;1.40;;
56718;SDS011;42597;40.636;0.278;2023-12-04T03:27:29;2.65;;;1.55;;
56718;SDS011;42597;40.636;0.278;2023-12-04T03:29:55;2.28;;;1.40;;
56718;SDS011;42597;40.636;0.278;2023-12-04T03:32:20;3.85;;;1.80;;
56718;SDS011;42597;40.636;0.278;2023-12-04T03:34:46;2.75;;;1.33;;
56718;SDS011;42597;40.636;0.278;2023-12-04T03:37:11;2.63;;;1.50;;
56718;SDS011;42597;40.636;0.278;2023-12-04T03:39:37;2.97;;;1.27;;
56718;SDS011;42597;40.636;0.278;2023-12-04T03:42:03;1.95;;;1.20;;
56718;SDS011;42597;40.636;0.278;2023-12-04T03:44:29;3.35;;;1.40;;
56718;SDS011;42597;40.636;0.278;2023-12-04T03:46:54;3.00;;;1.38;;
56718;SDS011;42597;40.636;0.278;2023-12-04T03:49:20;1.95;;;1.05;;
56718;SDS011;42597;40.636;0.278;2023-12-04T03:51:45;2.80;;;1.50;;
56718;SDS011;42597;40.636;0.278;2023-12-04T03:54:11;1.70;;;1.30;;
56718;SDS011;42597;40.636;0.278;2023-12-04T03:56:38;2.97;;;1.52;;
56718;SDS011;42597;40.636;0.278;2023-12-04T03:59:04;1.92;;;1.50;;
56718;SDS011;42597;40.636;0.278;2023-12-04T04:01:30;4.22;;;2.28;;
56718;SDS011;42597;40.636;0.278;2023-12-04T04:03:55;2.63;;;1.55;;
56718;SDS011;42597;40.636;0.278;2023-12-04T04:06:21;2.75;;;1.52;;
56718;SDS011;42597;40.636;0.278;2023-12-04T04:08:46;2.45;;;1.60;;
56718;SDS011;42597;40.636;0.278;2023-12-04T04:11:12;5.05;;;1.77;;
56718;SDS011;42597;40.636;0.278;2023-12-04T04:13:38;2.83;;;1.70;;
56718;SDS011;42597;40.636;0.278;2023-12-04T04:16:03;2.45;;;1.58;;
56718;SDS011;42597;40.636;0.278;2023-12-04T04:18:29;2.70;;;1.55;;
56718;SDS011;42597;40.636;0.278;2023-12-04T04:20:55;4.90;;;1.55;;
56718;SDS011;42597;40.636;0.278;2023-12-04T04:23:21;3.35;;;1.70;;
56718;SDS011;42597;40.636;0.278;2023-12-04T04:25:46;3.50;;;2.00;;
56718;SDS011;42597;40.636;0.278;2023-12-04T04:28:12;4.65;;;1.98;;
56718;SDS011;42597;40.636;0.278;2023-12-04T04:30:38;3.28;;;2.17;;
56718;SDS011;42597;40.636;0.278;2023-12-04T04:33:05;4.50;;;2.17;;
56718;SDS011;42597;40.636;0.278;2023-12-04T04:35:31;4.22;;;2.42;;
56718;SDS011;42597;40.636;0.278;2023-12-04T04:37:56;5.05;;;1.88;;
56718;SDS011;42597;40.636;0.278;2023-12-04T04:40:22;4.05;;;2.28;;
56718;SDS011;42597;40.636;0.278;2023-12-04T04:42:48;5.03;;;2.53;;
56718;SDS011;42597;40.636;0.278;2023-12-04T04:45:13;4.07;;;2.60;;
56718;SDS011;42597;40.636;0.278;2023-12-04T04:47:39;5.38;;;2.33;;
56718;SDS011;42597;40.636;0.278;2023-12-04T04:50:05;3.95;;;2.28;;
56718;SDS011;42597;40.636;0.278;2023-12-04T04:52:31;6.35;;;2.85;;
56718;SDS011;42597;40.636;0.278;2023-12-04T04:54:56;6.57;;;2.85;;
56718;SDS011;42597;40.636;0.278;2023-12-04T04:57:22;4.35;;;2.50;;
56718;SDS011;42597;40.636;0.278;2023-12-04T04:59:47;4.00;;;2.83;;
56718;SDS011;42597;40.636;0.278;2023-12-04T05:02:13;6.75;;;3.83;;
56718;SDS011;42597;40.636;0.278;2023-12-04T05:04:38;9.68;;;3.83;;
56718;SDS011;42597;40.636;0.278;2023-12-04T05:07:04;6.38;;;3.90;;
56718;SDS011;42597;40.636;0.278;2023-12-04T05:09:30;7.22;;;3.65;;
56718;SDS011;42597;40.636;0.278;2023-12-04T05:11:55;9.35;;;4.35;;
56718;SDS011;42597;40.636;0.278;2023-12-04T05:14:21;6.13;;;3.40;;
56718;SDS011;42597;40.636;0.278;2023-12-04T05:16:46;6.40;;;3.40;;
56718;SDS011;42597;40.636;0.278;2023-12-04T05:19:12;5.97;;;3.08;;
56718;SDS011;42597;40.636;0.278;2023-12-04T05:21:37;5.53;;;3.13;;
56718;SDS011;42597;40.636;0.278;2023-12-04T05:24:03;7.22;;;3.30;;
56718;SDS011;42597;40.636;0.278;2023-12-04T05:26:29;6.63;;;3.58;;
56718;SDS011;42597;40.636;0.278;2023-12-04T05:28:54;6.10;;;3.67;;
56718;SDS011;42597;40.636;0.278;2023-12-04T05:31:20;6.50;;;4.38;;
56718;SDS011;42597;40.636;0.278;2023-12-04T05:33:45;4.72;;;3.10;;
56718;SDS011;42597;40.636;0.278;2023-12-04T05:36:11;4.68;;;2.38;;
56718;SDS011;42597;40.636;0.278;2023-12-04T05:38:36;6.05;;;2.70;;
56718;SDS011;42597;40.636;0.278;2023-12-04T05:41:02;4.47;;;2.38;;
56718;SDS011;42597;40.636;0.278;2023-12-04T05:43:28;5.45;;;3.10;;
56718;SDS011;42597;40.636;0.278;2023-12-04T05:45:53;5.18;;;2.75;;
56718;SDS011;42597;40.636;0.278;2023-12-04T05:48:19;4.93;;;3.00;;
56718;SDS011;42597;40.636;0.278;2023-12-04T05:50:44;3.40;;;2.15;;
56718;SDS011;42597;40.636;0.278;2023-12-04T05:53:10;4.25;;;2.33;;
56718;SDS011;42597;40.636;0.278;2023-12-04T05:55:36;6.68;;;2.58;;
56718;SDS011;42597;40.636;0.278;2023-12-04T05:58:02;5.32;;;2.63;;
56718;SDS011;42597;40.636;0.278;2023-12-04T06:00:27;4.30;;;2.13;;
56718;SDS011;42597;40.636;0.278;2023-12-04T06:02:53;5.63;;;3.20;;
56718;SDS011;42597;40.636;0.278;2023-12-04T06:05:18;8.50;;;3.38;;
56718;SDS011;42597;40.636;0.278;2023-12-04T06:07:44;6.07;;;3.00;;
56718;SDS011;42597;40.636;0.278;2023-12-04T06:10:10;5.68;;;2.90;;
56718;SDS011;42597;40.636;0.278;2023-12-04T06:12:35;5.40;;;3.50;;
56718;SDS011;42597;40.636;0.278;2023-12-04T06:15:01;4.25;;;2.42;;
56718;SDS011;42597;40.636;0.278;2023-12-04T06:17:27;5.82;;;2.45;;
56718;SDS011;42597;40.636;0.278;2023-12-04T06:19:53;3.67;;;2.47;;
56718;SDS011;42597;40.636;0.278;2023-12-04T06:22:19;12.05;;;2.67;;
56718;SDS011;42597;40.636;0.278;2023-12-04T06:24:46;3.28;;;1.92;;
56718;SDS011;42597;40.636;0.278;2023-12-04T06:27:15;3.78;;;1.58;;
56718;SDS011;42597;40.636;0.278;2023-12-04T06:29:43;4.32;;;1.63;;
56718;SDS011;42597;40.636;0.278;2023-12-04T06:32:09;1.70;;;1.02;;
56718;SDS011;42597;40.636;0.278;2023-12-04T06:34:35;1.30;;;1.00;;
56718;SDS011;42597;40.636;0.278;2023-12-04T06:37:08;3.95;;;1.60;;
56718;SDS011;42597;40.636;0.278;2023-12-04T06:39:35;1.38;;;1.02;;
56718;SDS011;42597;40.636;0.278;2023-12-04T06:42:03;2.25;;;0.98;;
56718;SDS011;42597;40.636;0.278;2023-12-04T06:44:29;5.72;;;2.03;;
56718;SDS011;42597;40.636;0.278;2023-12-04T06:46:55;4.38;;;2.60;;
56718;SDS011;42597;40.636;0.278;2023-12-04T06:49:25;2.88;;;1.83;;
56718;SDS011;42597;40.636;0.278;2023-12-04T06:51:55;6.00;;;2.55;;
56718;SDS011;42597;40.636;0.278;2023-12-04T06:54:21;3.65;;;1.83;;
56718;SDS011;42597;40.636;0.278;2023-12-04T06:56:46;4.05;;;2.30;;
56718;SDS011;42597;40.636;0.278;2023-12-04T06:59:12;3.65;;;2.40;;
56718;SDS011;42597;40.636;0.278;2023-12-04T07:01:37;16.90;;;3.10;;
56718;SDS011;42597;40.636;0.278;2023-12-04T07:04:03;4.85;;;2.25;;
56718;SDS011;42597;40.636;0.278;2023-12-04T07:06:43;4.43;;;2.42;;
56718;SDS011;42597;40.636;0.278;2023-12-04T07:09:09;5.25;;;2.72;;
56718;SDS011;42597;40.636;0.278;2023-12-04T07:11:34;4.05;;;2.47;;
56718;SDS011;42597;40.636;0.278;2023-12-04T07:14:00;5.93;;;3.05;;
56718;SDS011;42597;40.636;0.278;2023-12-04T07:16:26;3.65;;;1.55;;
56718;SDS011;42597;40.636;0.278;2023-12-04T07:18:51;2.90;;;1.48;;
56718;SDS011;42597;40.636;0.278;2023-12-04T07:21:17;5.63;;;2.08;;
56718;SDS011;42597;40.636;0.278;2023-12-04T07:23:43;2.58;;;1.48;;
56718;SDS011;42597;40.636;0.278;2023-12-04T07:26:08;2.15;;;1.30;;
56718;SDS011;42597;40.636;0.278;2023-12-04T07:28:34;3.30;;;1.50;;
56718;SDS011;42597;40.636;0.278;2023-12-04T07:31:00;2.25;;;1.42;;
56718;SDS011;42597;40.636;0.278;2023-12-04T07:33:28;1.42;;;1.10;;
56718;SDS011;42597;40.636;0.278;2023-12-04T07:35:54;4.82;;;1.42;;
56718;SDS011;42597;40.636;0.278;2023-12-04T07:38:20;4.70;;;1.48;;
56718;SDS011;42597;40.636;0.278;2023-12-04T07:40:45;8.25;;;1.60;;
56718;SDS011;42597;40.636;0.278;2023-12-04T07:43:11;3.72;;;1.52;;
56718;SDS011;42597;40.636;0.278;2023-12-04T07:45:39;3.67;;;1.83;;
56718;SDS011;42597;40.636;0.278;2023-12-04T07:48:04;1.73;;;1.20;;
56718;SDS011;42597;40.636;0.278;2023-12-04T07:50:30;7.55;;;2.13;;
56718;SDS011;42597;40.636;0.278;2023-12-04T07:52:56;4.07;;;1.30;;
56718;SDS011;42597;40.636;0.278;2023-12-04T07:55:21;1.33;;;1.00;;
56718;SDS011;42597;40.636;0.278;2023-12-04T07:57:47;4.60;;;1.50;;
56718;SDS011;42597;40.636;0.278;2023-12-04T08:00:13;4.57;;;1.98;;
56718;SDS011;42597;40.636;0.278;2023-12-04T08:02:39;4.85;;;1.48;;
56718;SDS011;42597;40.636;0.278;2023-12-04T08:05:06;4.82;;;1.90;;
56718;SDS011;42597;40.636;0.278;2023-12-04T08:07:31;1.63;;;1.30;;
56718;SDS011;42597;40.636;0.278;2023-12-04T08:09:57;3.78;;;1.45;;
56718;SDS011;42597;40.636;0.278;2023-12-04T08:12:23;3.75;;;2.20;;
56718;SDS011;42597;40.636;0.278;2023-12-04T08:14:48;8.07;;;2.17;;
56718;SDS011;42597;40.636;0.278;2023-12-04T08:17:14;4.82;;;2.67;;
56718;SDS011;42597;40.636;0.278;2023-12-04T08:19:42;19.48;;;10.70;;
56718;SDS011;42597;40.636;0.278;2023-12-04T08:22:09;13.60;;;7.38;;
56718;SDS011;42597;40.636;0.278;2023-12-04T08:24:34;12.10;;;4.78;;
56718;SDS011;42597;40.636;0.278;2023-12-04T08:27:00;27.45;;;13.82;;
56718;SDS011;42597;40.636;0.278;2023-12-04T08:29:25;58.35;;;31.42;;
56718;SDS011;42597;40.636;0.278;2023-12-04T08:31:51;161.63;;;85.78;;
56718;SDS011;42597;40.636;0.278;2023-12-04T08:34:16;147.93;;;74.55;;
56718;SDS011;42597;40.636;0.278;2023-12-04T08:36:42;117.45;;;65.25;;
56718;SDS011;42597;40.636;0.278;2023-12-04T08:39:08;26.30;;;13.25;;
56718;SDS011;42597;40.636;0.278;2023-12-04T08:41:33;46.72;;;24.88;;
56718;SDS011;42597;40.636;0.278;2023-12-04T08:43:59;22.90;;;13.77;;
56718;SDS011;42597;40.636;0.278;2023-12-04T08:46:24;60.35;;;35.47;;
56718;SDS011;42597;40.636;0.278;2023-12-04T08:48:50;57.83;;;35.47;;
56718;SDS011;42597;40.636;0.278;2023-12-04T08:51:16;28.00;;;17.20;;
56718;SDS011;42597;40.636;0.278;2023-12-04T08:53:42;38.60;;;23.05;;
56718;SDS011;42597;40.636;0.278;2023-12-04T08:56:09;16.23;;;11.07;;
56718;SDS011;42597;40.636;0.278;2023-12-04T08:58:34;11.52;;;5.38;;
56718;SDS011;42597;40.636;0.278;2023-12-04T09:01:00;12.73;;;8.30;;
56718;SDS011;42597;40.636;0.278;2023-12-04T09:03:26;31.58;;;17.08;;
56718;SDS011;42597;40.636;0.278;2023-12-04T09:05:51;12.00;;;5.75;;
56718;SDS011;42597;40.636;0.278;2023-12-04T09:08:17;39.05;;;25.45;;
56718;SDS011;42597;40.636;0.278;2023-12-04T09:10:46;16.10;;;9.02;;
56718;SDS011;42597;40.636;0.278;2023-12-04T09:13:12;7.38;;;5.75;;
56718;SDS011;42597;40.636;0.278;2023-12-04T09:15:39;14.38;;;6.32;;
56718;SDS011;42597;40.636;0.278;2023-12-04T09:18:04;10.63;;;5.07;;
56718;SDS011;42597;40.636;0.278;2023-12-04T09:20:30;6.13;;;1.98;;
56718;SDS011;42597;40.636;0.278;2023-12-04T09:22:56;3.95;;;1.90;;
56718;SDS011;42597;40.636;0.278;2023-12-04T09:25:21;15.20;;;7.63;;
56718;SDS011;42597;40.636;0.278;2023-12-04T09:27:47;7.72;;;5.32;;
56718;SDS011;42597;40.636;0.278;2023-12-04T09:30:12;5.50;;;3.40;;
56718;SDS011;42597;40.636;0.278;2023-12-04T09:32:39;10.35;;;5.22;;
56718;SDS011;42597;40.636;0.278;2023-12-04T09:35:04;6.63;;;4.22;;
56718;SDS011;42597;40.636;0.278;2023-12-04T09:37:31;6.15;;;3.45;;
56718;SDS011;42597;40.636;0.278;2023-12-04T09:39:56;7.07;;;4.05;;
56718;SDS011;42597;40.636;0.278;2023-12-04T09:42:22;4.80;;;2.38;;
56718;SDS011;42597;40.636;0.278;2023-12-04T09:44:48;5.53;;;3.53;;
56718;SDS011;42597;40.636;0.278;2023-12-04T09:47:16;5.82;;;3.05;;
56718;SDS011;42597;40.636;0.278;2023-12-04T09:49:43;6.90;;;4.25;;
56718;SDS011;42597;40.636;0.278;2023-12-04T09:52:10;4.85;;;2.47;;
56718;SDS011;42597;40.636;0.278;2023-12-04T09:54:36;5.63;;;2.88;;
56718;SDS011;42597;40.636;0.278;2023-12-04T09:57:03;6.88;;;3.65;;
56718;SDS011;42597;40.636;0.278;2023-12-04T09:59:30;6.03;;;4.10;;
56718;SDS011;42597;40.636;0.278;2023-12-04T10:01:56;10.18;;;4.53;;
56718;SDS011;42597;40.636;0.278;2023-12-04T10:04:23;8.98;;;3.67;;
56718;SDS011;42597;40.636;0.278;2023-12-04T10:06:53;6.28;;;3.63;;
56718;SDS011;42597;40.636;0.278;2023-12-04T10:09:19;7.40;;;4.18;;
56718;SDS011;42597;40.636;0.278;2023-12-04T10:11:47;9.43;;;4.40;;
56718;SDS011;42597;40.636;0.278;2023-12-04T10:14:16;9.83;;;4.47;;
56718;SDS011;42597;40.636;0.278;2023-12-04T10:16:46;7.07;;;3.65;;
56718;SDS011;42597;40.636;0.278;2023-12-04T10:21:42;11.75;;;4.22;;
56718;SDS011;42597;40.636;0.278;2023-12-04T10:24:09;6.78;;;4.43;;
56718;SDS011;42597;40.636;0.278;2023-12-04T10:26:35;7.03;;;3.40;;
56718;SDS011;42597;40.636;0.278;2023-12-04T10:29:02;10.13;;;3.83;;
56718;SDS011;42597;40.636;0.278;2023-12-04T10:31:33;7.50;;;2.95;;
56718;SDS011;42597;40.636;0.278;2023-12-04T10:34:00;3.55;;;1.98;;
56718;SDS011;42597;40.636;0.278;2023-12-04T10:36:26;6.70;;;2.72;;
56718;SDS011;42597;40.636;0.278;2023-12-04T10:38:59;6.50;;;2.90;;
56718;SDS011;42597;40.636;0.278;2023-12-04T10:41:25;4.63;;;2.38;;
56718;SDS011;42597;40.636;0.278;2023-12-04T10:43:51;13.77;;;10.50;;
56718;SDS011;42597;40.636;0.278;2023-12-04T10:46:17;11.73;;;6.50;;
56718;SDS011;42597;40.636;0.278;2023-12-04T10:48:44;6.63;;;4.13;;
56718;SDS011;42597;40.636;0.278;2023-12-04T10:51:11;6.07;;;3.83;;
56718;SDS011;42597;40.636;0.278;2023-12-04T10:53:37;10.30;;;3.50;;
56718;SDS011;42597;40.636;0.278;2023-12-04T10:56:06;5.82;;;2.70;;
56718;SDS011;42597;40.636;0.278;2023-12-04T10:58:34;5.43;;;3.20;;
56718;SDS011;42597;40.636;0.278;2023-12-04T11:01:03;4.82;;;3.17;;
56718;SDS011;42597;40.636;0.278;2023-12-04T11:03:31;5.30;;;3.42;;
56718;SDS011;42597;40.636;0.278;2023-12-04T11:06:02;8.88;;;6.28;;
56718;SDS011;42597;40.636;0.278;2023-12-04T11:08:33;9.35;;;6.47;;
56718;SDS011;42597;40.636;0.278;2023-12-04T11:11:03;10.50;;;3.83;;
56718;SDS011;42597;40.636;0.278;2023-12-04T11:13:37;6.82;;;3.85;;
56718;SDS011;42597;40.636;0.278;2023-12-04T11:18:38;4.72;;;2.85;;
56718;SDS011;42597;40.636;0.278;2023-12-04T11:21:09;7.65;;;2.60;;
56718;SDS011;42597;40.636;0.278;2023-12-04T11:23:36;4.35;;;2.80;;
56718;SDS011;42597;40.636;0.278;2023-12-04T11:26:03;4.00;;;2.47;;
56718;SDS011;42597;40.636;0.278;2023-12-04T11:28:30;5.03;;;2.92;;
56718;SDS011;42597;40.636;0.278;2023-12-04T11:30:58;4.65;;;2.28;;
56718;SDS011;42597;40.636;0.278;2023-12-04T11:33:26;5.37;;;3.00;;
56718;SDS011;42597;40.636;0.278;2023-12-04T11:35:51;4.93;;;2.85;;
56718;SDS011;42597;40.636;0.278;2023-12-04T11:38:17;5.10;;;2.78;;
56718;SDS011;42597;40.636;0.278;2023-12-04T11:40:43;5.00;;;2.88;;
56718;SDS011;42597;40.636;0.278;2023-12-04T11:43:24;5.57;;;3.17;;
56718;SDS011;42597;40.636;0.278;2023-12-04T11:45:51;6.05;;;2.53;;
56718;SDS011;42597;40.636;0.278;2023-12-04T11:48:22;3.85;;;2.58;;
56718;SDS011;42597;40.636;0.278;2023-12-04T11:50:51;5.28;;;2.65;;
56718;SDS011;42597;40.636;0.278;2023-12-04T11:53:17;7.03;;;2.92;;
56718;SDS011;42597;40.636;0.278;2023-12-04T11:55:42;5.75;;;3.03;;
56718;SDS011;42597;40.636;0.278;2023-12-04T11:58:08;5.28;;;3.05;;
56718;SDS011;42597;40.636;0.278;2023-12-04T12:00:35;6.35;;;3.42;;
56718;SDS011;42597;40.636;0.278;2023-12-04T12:03:04;5.57;;;3.33;;
56718;SDS011;42597;40.636;0.278;2023-12-04T12:05:32;5.15;;;3.25;;
56718;SDS011;42597;40.636;0.278;2023-12-04T12:08:00;4.27;;;2.53;;
56718;SDS011;42597;40.636;0.278;2023-12-04T12:10:29;4.97;;;3.10;;
56718;SDS011;42597;40.636;0.278;2023-12-04T12:12:55;7.85;;;4.72;;
56718;SDS011;42597;40.636;0.278;2023-12-04T12:15:22;6.07;;;3.55;;
56718;SDS011;42597;40.636;0.278;2023-12-04T12:17:49;6.75;;;4.20;;
56718;SDS011;42597;40.636;0.278;2023-12-04T12:20:15;5.72;;;3.50;;
56718;SDS011;42597;40.636;0.278;2023-12-04T12:22:41;4.57;;;2.85;;
56718;SDS011;42597;40.636;0.278;2023-12-04T12:25:09;5.10;;;2.88;;
56718;SDS011;42597;40.636;0.278;2023-12-04T12:27:35;6.93;;;3.58;;
56718;SDS011;42597;40.636;0.278;2023-12-04T12:30:01;7.95;;;4.05;;
56718;SDS011;42597;40.636;0.278;2023-12-04T12:32:30;6.78;;;3.40;;
56718;SDS011;42597;40.636;0.278;2023-12-04T12:34:56;3.95;;;2.45;;
56718;SDS011;42597;40.636;0.278;2023-12-04T12:37:22;3.38;;;2.15;;
56718;SDS011;42597;40.636;0.278;2023-12-04T12:39:47;5.10;;;2.97;;
56718;SDS011;42597;40.636;0.278;2023-12-04T12:42:30;4.88;;;2.50;;
56718;SDS011;42597;40.636;0.278;2023-12-04T12:44:59;7.60;;;2.88;;
56718;SDS011;42597;40.636;0.278;2023-12-04T12:49:51;5.72;;;2.63;;
56718;SDS011;42597;40.636;0.278;2023-12-04T12:52:17;3.45;;;2.13;;
56718;SDS011;42597;40.636;0.278;2023-12-04T12:54:44;5.55;;;2.40;;
56718;SDS011;42597;40.636;0.278;2023-12-04T12:57:10;5.43;;;2.20;;
56718;SDS011;42597;40.636;0.278;2023-12-04T12:59:40;6.10;;;3.42;;
56718;SDS011;42597;40.636;0.278;2023-12-04T13:02:06;5.47;;;2.47;;
56718;SDS011;42597;40.636;0.278;2023-12-04T13:07:05;10.55;;;6.05;;
56718;SDS011;42597;40.636;0.278;2023-12-04T13:09:32;13.73;;;6.85;;
56718;SDS011;42597;40.636;0.278;2023-12-04T13:11:58;7.72;;;3.67;;
56718;SDS011;42597;40.636;0.278;2023-12-04T13:14:25;5.03;;;2.42;;
56718;SDS011;42597;40.636;0.278;2023-12-04T13:16:50;5.82;;;2.80;;
56718;SDS011;42597;40.636;0.278;2023-12-04T13:19:16;4.47;;;2.83;;
56718;SDS011;42597;40.636;0.278;2023-12-04T13:21:42;6.00;;;2.83;;
56718;SDS011;42597;40.636;0.278;2023-12-04T13:24:09;7.05;;;3.97;;
56718;SDS011;42597;40.636;0.278;2023-12-04T13:26:36;6.15;;;3.30;;
56718;SDS011;42597;40.636;0.278;2023-12-04T13:29:01;7.60;;;2.75;;
56718;SDS011;42597;40.636;0.278;2023-12-04T13:31:27;6.95;;;3.40;;
56718;SDS011;42597;40.636;0.278;2023-12-04T13:33:53;6.05;;;2.92;;
56718;SDS011;42597;40.636;0.278;2023-12-04T13:36:18;5.00;;;3.40;;
56718;SDS011;42597;40.636;0.278;2023-12-04T13:38:44;6.70;;;5.57;;
56718;SDS011;42597;40.636;0.278;2023-12-04T13:41:10;7.25;;;4.45;;
56718;SDS011;42597;40.636;0.278;2023-12-04T13:43:54;7.45;;;4.53;;
56718;SDS011;42597;40.636;0.278;2023-12-04T13:46:20;6.45;;;3.17;;
56718;SDS011;42597;40.636;0.278;2023-12-04T13:48:46;6.38;;;2.97;;
56718;SDS011;42597;40.636;0.278;2023-12-04T13:51:12;4.65;;;3.00;;
56718;SDS011;42597;40.636;0.278;2023-12-04T13:53:38;5.53;;;3.13;;
56718;SDS011;42597;40.636;0.278;2023-12-04T13:56:09;4.32;;;2.08;;
56718;SDS011;42597;40.636;0.278;2023-12-04T13:58:56;5.22;;;2.35;;
56718;SDS011;42597;40.636;0.278;2023-12-04T14:01:22;4.63;;;2.05;;
56718;SDS011;42597;40.636;0.278;2023-12-04T14:03:54;7.22;;;3.97;;
56718;SDS011;42597;40.636;0.278;2023-12-04T14:06:29;5.57;;;3.10;;
56718;SDS011;42597;40.636;0.278;2023-12-04T14:08:57;5.35;;;3.10;;
56718;SDS011;42597;40.636;0.278;2023-12-04T14:11:23;6.03;;;3.47;;
56718;SDS011;42597;40.636;0.278;2023-12-04T14:13:49;6.07;;;3.25;;
56718;SDS011;42597;40.636;0.278;2023-12-04T14:16:15;6.07;;;3.17;;
56718;SDS011;42597;40.636;0.278;2023-12-04T14:18:41;5.47;;;3.25;;
56718;SDS011;42597;40.636;0.278;2023-12-04T14:21:07;5.72;;;3.03;;
56718;SDS011;42597;40.636;0.278;2023-12-04T14:23:33;5.18;;;2.90;;
56718;SDS011;42597;40.636;0.278;2023-12-04T14:25:59;6.53;;;3.47;;
56718;SDS011;42597;40.636;0.278;2023-12-04T14:28:26;6.88;;;3.30;;
56718;SDS011;42597;40.636;0.278;2023-12-04T14:30:52;5.30;;;3.13;;
56718;SDS011;42597;40.636;0.278;2023-12-04T14:33:18;5.05;;;2.88;;
56718;SDS011;42597;40.636;0.278;2023-12-04T14:35:43;6.30;;;3.63;;
56718;SDS011;42597;40.636;0.278;2023-12-04T14:38:09;5.93;;;2.95;;
56718;SDS011;42597;40.636;0.278;2023-12-04T14:40:34;6.75;;;4.18;;
56718;SDS011;42597;40.636;0.278;2023-12-04T14:43:00;5.47;;;3.42;;
56718;SDS011;42597;40.636;0.278;2023-12-04T14:45:26;9.02;;;6.07;;
56718;SDS011;42597;40.636;0.278;2023-12-04T14:47:51;7.80;;;4.68;;
56718;SDS011;42597;40.636;0.278;2023-12-04T14:50:21;8.57;;;4.65;;